Time;durP1;ratioP1;P1;durP2;ratioP2;P2;SDS_P1;SDS_P2;PMS_P1;PMS_P2;Temp;Humidity;BMP_temperature;BMP_pressure;BME280_temperature;BME280_humidity;BME280_pressure;Samples;Min_cycle;Max_cycle;Signal;HPM_P1;HPM_P2
2023/10/30 00:00:07;;;;;;;4.85;1.17;;;;;;;14.71;73.82;99790.13;6194404;28;20510;-75
2023/10/30 00:03:11;;;;;;;3.58;1.10;;;;;;;14.73;73.99;99785.59;6193677;28;21092;-72
2023/10/30 00:06:12;;;;;;;3.47;1.20;;;;;;;14.70;73.90;99785.81;6209818;28;20054;-76
2023/10/30 00:09:15;;;;;;;2.95;1.02;;;;;;;14.56;74.09;99791.38;6197886;28;20137;-76
2023/10/30 00:12:19;;;;;;;4.22;1.00;;;;;;;14.60;74.21;99792.78;6194140;28;20054;-75
2023/10/30 00:15:20;;;;;;;1.38;0.85;;;;;;;14.54;74.63;99796.75;6193940;28;20078;-76
2023/10/30 00:18:21;;;;;;;1.98;0.90;;;;;;;14.60;74.57;99795.41;6193727;28;20498;-76
2023/10/30 00:21:22;;;;;;;8.15;1.15;;;;;;;14.45;75.10;99795.66;6201369;28;20050;-76
2023/10/30 00:24:23;;;;;;;4.93;0.95;;;;;;;14.36;75.03;99791.19;6214962;28;20054;-73
2023/10/30 00:27:27;;;;;;;3.77;1.23;;;;;;;14.39;74.88;99797.97;6217494;28;20498;-72
2023/10/30 00:30:28;;;;;;;3.63;1.30;;;;;;;14.45;74.72;99793.03;6197972;28;20046;-73
2023/10/30 00:33:30;;;;;;;2.22;1.35;;;;;;;14.35;75.32;99799.16;6218864;28;20054;-75
2023/10/30 00:36:31;;;;;;;3.42;1.05;;;;;;;14.38;75.36;99793.69;6222734;28;20050;-73
2023/10/30 00:39:34;;;;;;;3.50;1.02;;;;;;;14.42;75.32;99795.09;6216984;28;20060;-76
2023/10/30 00:42:35;;;;;;;2.70;1.17;;;;;;;14.33;75.81;99788.81;6222563;28;20389;-75
2023/10/30 00:45:36;;;;;;;2.65;1.10;;;;;;;14.24;76.26;99794.78;6221300;28;20053;-76
2023/10/30 00:48:37;;;;;;;7.18;1.00;;;;;;;14.23;75.71;99799.22;6221539;28;20061;-76
2023/10/30 00:51:38;;;;;;;0.88;0.68;;;;;;;14.20;75.57;99799.44;6221218;28;20046;-73
2023/10/30 00:54:38;;;;;;;2.03;0.98;;;;;;;14.38;76.03;99786.63;6221179;28;20054;-74
2023/10/30 00:57:39;;;;;;;5.03;1.63;;;;;;;14.38;75.53;99794.50;6204090;28;20497;-76
2023/10/30 01:00:43;;;;;;;2.78;1.10;;;;;;;14.21;76.46;99795.06;6207556;28;20060;-76
2023/10/30 01:03:44;;;;;;;3.15;1.10;;;;;;;14.36;76.08;99778.06;6220765;28;20081;-73
2023/10/30 01:06:45;;;;;;;4.03;1.05;;;;;;;14.22;76.30;99783.59;6197613;28;20459;-75
2023/10/30 01:09:49;;;;;;;4.43;1.40;;;;;;;14.16;76.90;99790.16;6298696;28;20131;-75
2023/10/30 01:12:49;;;;;;;3.97;1.10;;;;;;;14.09;77.32;99781.94;6197808;28;20061;-73
2023/10/30 01:15:54;;;;;;;5.32;1.25;;;;;;;13.99;77.44;99778.41;6217650;28;20054;-73
2023/10/30 01:18:55;;;;;;;3.15;1.20;;;;;;;14.03;77.83;99779.81;6213661;28;20517;-73
2023/10/30 01:21:56;;;;;;;2.00;0.90;;;;;;;14.07;77.29;99773.38;6206911;28;20050;-72
2023/10/30 01:24:57;;;;;;;2.95;1.23;;;;;;;13.97;77.83;99766.38;6219516;28;20148;-72
2023/10/30 01:27:57;;;;;;;2.78;0.98;;;;;;;14.01;77.59;99770.41;6208420;28;20050;-72
2023/10/30 01:31:00;;;;;;;1.48;0.98;;;;;;;13.96;77.77;99762.06;6196228;28;20474;-74
2023/10/30 01:34:01;;;;;;;2.67;1.10;;;;;;;13.98;78.24;99766.25;6200379;28;20062;-74
2023/10/30 01:37:02;;;;;;;2.20;0.93;;;;;;;13.82;78.24;99769.25;6220226;28;20203;-72
2023/10/30 01:40:03;;;;;;;2.67;1.10;;;;;;;13.88;78.63;99763.50;6221194;28;20080;-75
2023/10/30 01:43:08;;;;;;;1.58;0.95;;;;;;;13.86;79.14;99768.03;6203858;28;20055;-75
2023/10/30 01:46:09;;;;;;;3.83;1.25;;;;;;;13.90;78.42;99766.03;6207787;28;20091;-74
2023/10/30 01:49:10;;;;;;;1.98;1.00;;;;;;;13.74;79.06;99766.41;6210232;28;20050;-74
2023/10/30 01:52:11;;;;;;;1.15;0.93;;;;;;;13.86;78.64;99765.44;6220531;28;20046;-74
2023/10/30 01:55:12;;;;;;;7.97;1.30;;;;;;;13.81;79.03;99757.06;6220898;28;20444;-75
2023/10/30 01:58:14;;;;;;;1.42;0.88;;;;;;;13.87;79.38;99764.47;6219970;28;20053;-72
2023/10/30 02:01:15;;;;;;;;;;;;;;;13.88;79.49;99773.19;6200250;28;20480;-75
2023/10/30 02:04:16;;;;;;;3.03;1.23;;;;;;;13.77;79.37;99762.69;6195627;28;19951;-72
2023/10/30 02:07:19;;;;;;;0.88;0.80;;;;;;;13.79;79.34;99764.22;6195412;28;20414;-75
2023/10/30 02:10:21;;;;;;;7.10;1.20;;;;;;;13.80;79.43;99775.56;6220285;28;20136;-72
2023/10/30 02:13:24;;;;;;;2.10;1.10;;;;;;;13.87;79.40;99768.88;6220259;28;20050;-72
2023/10/30 02:16:24;;;;;;;2.58;1.30;;;;;;;13.82;79.16;99771.88;6197353;28;20137;-72
2023/10/30 02:19:27;;;;;;;3.50;1.15;;;;;;;13.70;79.84;99765.78;6194721;28;20513;-75
2023/10/30 02:22:28;;;;;;;3.92;1.35;;;;;;;13.86;79.61;99765.44;6209500;28;20046;-72
2023/10/30 02:25:31;;;;;;;4.93;1.40;;;;;;;13.84;79.82;99763.88;6219137;28;20455;-72
2023/10/30 02:28:32;;;;;;;2.60;1.08;;;;;;;13.72;79.72;99764.84;6219251;28;20482;-72
2023/10/30 02:31:33;;;;;;;3.83;1.35;;;;;;;13.81;80.37;99767.56;6219177;28;20065;-75
2023/10/30 02:34:34;;;;;;;2.33;0.98;;;;;;;13.63;80.44;99758.53;6217628;28;20498;-71
2023/10/30 02:37:35;;;;;;;4.05;1.10;;;;;;;13.64;80.56;99768.06;6213198;28;20057;-71
2023/10/30 02:40:37;;;;;;;2.75;1.20;;;;;;;13.44;81.54;99761.75;6220376;28;20411;-71
2023/10/30 02:43:37;;;;;;;4.93;1.10;;;;;;;13.74;80.94;99762.94;6321443;27;20054;-71
2023/10/30 02:46:38;;;;;;;2.72;1.02;;;;;;;13.62;80.53;99764.72;6214305;28;20108;-74
2023/10/30 02:49:40;;;;;;;3.13;1.02;;;;;;;13.60;80.58;99769.25;6198513;28;20054;-75
2023/10/30 02:52:40;;;;;;;2.90;1.10;;;;;;;13.57;81.11;99767.72;6196011;28;20047;-72
2023/10/30 02:55:41;;;;;;;1.17;0.88;;;;;;;13.65;81.21;99767.97;6199630;28;20093;-75
2023/10/30 02:58:45;;;;;;;6.45;1.50;;;;;;;13.65;80.56;99752.22;6203338;28;20057;-75
2023/10/30 03:01:46;;;;;;;3.38;1.10;;;;;;;13.47;81.62;99767.59;6213244;28;20095;-75
2023/10/30 03:04:46;;;;;;;1.83;1.10;;;;;;;13.32;81.58;99757.47;6208326;28;20077;-72
2023/10/30 03:07:47;;;;;;;1.80;1.00;;;;;;;13.56;81.05;99759.97;6216229;28;20065;-73
2023/10/30 03:10:48;;;;;;;2.92;1.10;;;;;;;13.47;82.13;99759.72;6211776;28;20133;-72
2023/10/30 03:13:49;;;;;;;1.10;0.80;;;;;;;13.41;82.23;99762.84;6219489;28;20061;-75
2023/10/30 03:16:51;;;;;;;1.93;0.90;;;;;;;13.27;82.50;99768.28;6219011;28;20474;-75
2023/10/30 03:19:52;;;;;;;2.33;0.97;;;;;;;13.37;82.39;99760.56;6207792;28;20576;-74
2023/10/30 03:22:52;;;;;;;3.45;1.10;;;;;;;13.34;82.49;99771.28;6218055;28;20057;-72
2023/10/30 03:25:54;;;;;;;1.05;0.95;;;;;;;13.41;82.49;99769.88;6203957;28;20437;-72
2023/10/30 03:28:55;;;;;;;3.30;1.30;;;;;;;13.43;82.61;99773.19;6215409;28;20157;-75
2023/10/30 03:31:57;;;;;;;5.60;1.53;;;;;;;13.42;81.93;99774.13;6218030;28;20062;-72
2023/10/30 03:35:01;;;;;;;5.20;1.02;;;;;;;13.28;82.56;99776.03;6209139;28;20058;-72
2023/10/30 03:38:02;;;;;;;5.43;1.50;;;;;;;13.37;82.62;99769.25;6194901;28;20101;-72
2023/10/30 03:41:05;;;;;;;6.80;1.65;;;;;;;13.26;83.48;99771.81;6194830;28;20078;-72
2023/10/30 03:44:08;;;;;;;9.77;1.50;;;;;;;13.33;83.40;99769.63;6198402;28;20053;-73
2023/10/30 03:47:09;;;;;;;3.97;1.42;;;;;;;13.34;83.61;99774.72;6216385;28;20068;-75
2023/10/30 03:50:16;;;;;;;1.75;1.02;;;;;;;13.44;83.32;99773.06;6194924;28;20058;-74
2023/10/30 03:53:17;;;;;;;3.10;0.95;;;;;;;13.35;83.76;99763.31;6207434;28;20103;-75
2023/10/30 03:56:21;;;;;;;2.92;1.00;;;;;;;13.28;84.01;99777.78;6211889;28;20103;-74
2023/10/30 03:59:22;;;;;;;5.20;1.30;;;;;;;13.25;84.20;99772.78;6198247;28;20062;-74
2023/10/30 04:02:26;;;;;;;4.35;1.15;;;;;;;13.25;84.05;99773.63;6218524;28;20137;-72
2023/10/30 04:05:26;;;;;;;2.83;1.52;;;;;;;13.16;85.04;99783.97;6211079;28;20058;-72
2023/10/30 04:08:27;;;;;;;4.45;1.45;;;;;;;13.23;84.41;99782.56;6216639;28;20054;-75
2023/10/30 04:11:28;;;;;;;6.10;1.23;;;;;;;13.22;84.83;99789.59;6203229;28;20383;-72
2023/10/30 04:14:32;;;;;;;3.53;1.30;;;;;;;13.29;84.41;99784.75;6193384;28;20061;-72
2023/10/30 04:17:33;;;;;;;4.28;1.33;;;;;;;13.21;84.68;99780.03;6298743;28;20080;-72
2023/10/30 04:20:34;;;;;;;1.95;0.95;;;;;;;13.22;85.28;99784.34;6198089;28;20050;-73
2023/10/30 04:23:36;;;;;;;5.40;1.38;;;;;;;13.24;84.30;99786.81;6214061;28;20099;-71
2023/10/30 04:26:37;;;;;;;4.03;1.73;;;;;;;13.37;84.31;99779.75;6215646;28;20050;-72
2023/10/30 04:29:41;;;;;;;8.00;1.30;;;;;;;13.29;84.41;99774.25;6216626;28;20425;-72
2023/10/30 04:32:42;;;;;;;3.13;1.58;;;;;;;13.29;84.72;99780.31;6208608;28;20948;-75
2023/10/30 04:35:43;;;;;;;4.03;1.42;;;;;;;13.16;85.43;99779.56;6206484;28;20148;-75
2023/10/30 04:38:44;;;;;;;3.53;1.20;;;;;;;13.18;85.82;99777.66;6203677;28;20054;-72
2023/10/30 04:41:45;;;;;;;2.97;1.15;;;;;;;13.15;85.83;99777.88;6213527;28;20046;-75
2023/10/30 04:44:48;;;;;;;3.90;1.33;;;;;;;13.22;85.26;99781.72;6212060;28;20497;-76
2023/10/30 04:47:52;;;;;;;4.03;1.65;;;;;;;13.25;86.02;99778.84;6215827;28;20054;-75
2023/10/30 04:50:53;;;;;;;3.20;1.05;;;;;;;13.24;85.83;99778.97;6206396;28;20132;-74
2023/10/30 04:53:54;;;;;;;1.75;1.35;;;;;;;13.18;85.59;99774.19;6194833;28;20066;-75
2023/10/30 04:56:54;;;;;;;3.08;1.60;;;;;;;13.12;86.78;99777.31;6215742;28;20053;-75
2023/10/30 04:59:57;;;;;;;3.63;1.40;;;;;;;13.22;86.13;99780.88;6211049;28;20050;-75
2023/10/30 05:02:58;;;;;;;3.72;1.40;;;;;;;13.23;85.88;99769.44;6192360;28;20057;-76
2023/10/30 05:06:03;;;;;;;2.35;1.25;;;;;;;13.22;86.41;99773.88;6211020;28;20049;-75
2023/10/30 05:09:04;;;;;;;6.82;1.70;;;;;;;13.27;85.78;99765.66;6209113;28;20050;-75
2023/10/30 05:12:08;;;;;;;6.70;1.60;;;;;;;13.13;86.13;99776.34;6208643;28;20147;-74
2023/10/30 05:15:09;;;;;;;4.20;1.40;;;;;;;13.05;86.59;99776.91;6202420;28;20050;-73
2023/10/30 05:18:10;;;;;;;2.55;1.30;;;;;;;13.11;85.98;99776.44;6211753;28;20049;-75
2023/10/30 05:21:11;;;;;;;2.08;1.10;;;;;;;13.05;86.98;99774.31;6219685;28;20095;-74
2023/10/30 05:24:12;;;;;;;5.75;1.58;;;;;;;13.09;86.75;99778.34;6219542;28;20485;-73
2023/10/30 05:27:13;;;;;;;1.52;1.00;;;;;;;13.07;87.27;99778.50;6213660;28;20046;-72
2023/10/30 05:30:16;;;;;;;3.08;1.13;;;;;;;13.09;86.59;99780.97;6220310;28;20050;-72
2023/10/30 05:33:17;;;;;;;2.20;1.17;;;;;;;13.07;86.89;99782.88;6202712;28;20054;-72
2023/10/30 05:36:18;;;;;;;5.53;1.40;;;;;;;13.08;86.83;99777.53;6203853;28;20058;-73
2023/10/30 05:39:19;;;;;;;6.60;1.58;;;;;;;13.21;87.00;99785.28;6218525;28;20058;-72
2023/10/30 05:42:20;;;;;;;5.95;1.60;;;;;;;13.25;86.42;99791.13;6209149;28;20050;-72
2023/10/30 05:45:23;;;;;;;3.30;1.60;;;;;;;13.13;86.66;99786.81;6202383;28;20061;-72
2023/10/30 05:48:24;;;;;;;4.38;1.30;;;;;;;13.22;87.05;99788.72;6212750;28;20050;-71
2023/10/30 05:51:25;;;;;;;3.50;1.50;;;;;;;13.24;86.41;99795.53;6220146;28;20453;-72
2023/10/30 05:54:28;;;;;;;6.30;1.30;;;;;;;13.33;85.79;99793.19;6218960;28;20545;-75
2023/10/30 05:57:29;;;;;;;6.40;1.55;;;;;;;13.35;85.93;99794.75;6215588;28;20054;-72
2023/10/30 06:00:30;;;;;;;2.78;1.38;;;;;;;13.35;86.56;99807.03;6208062;28;20045;-72
2023/10/30 06:03:31;;;;;;;4.25;1.13;;;;;;;13.29;86.36;99790.81;6218158;28;20050;-75
2023/10/30 06:06:32;;;;;;;6.97;1.92;;;;;;;13.33;86.06;99796.66;6218171;28;20474;-75
2023/10/30 06:09:33;;;;;;;4.78;1.58;;;;;;;13.42;85.53;99802.97;6219637;28;20042;-71
2023/10/30 06:12:34;;;;;;;16.05;1.70;;;;;;;13.49;85.75;99801.56;6216772;28;20049;-72
2023/10/30 06:15:35;;;;;;;2.50;1.15;;;;;;;13.51;85.29;99794.41;6218070;28;20050;-73
2023/10/30 06:18:36;;;;;;;6.47;1.40;;;;;;;13.47;85.79;99808.72;6219624;28;20061;-73
2023/10/30 06:21:39;;;;;;;4.10;1.55;;;;;;;13.50;85.78;99805.84;6214153;28;20050;-75
2023/10/30 06:24:40;;;;;;;3.45;1.45;;;;;;;13.66;85.58;99808.09;6214717;28;20056;-76
2023/10/30 06:27:41;;;;;;;2.25;1.00;;;;;;;13.81;84.50;99816.56;6193939;28;20054;-73
2023/10/30 06:30:44;;;;;;;3.47;1.23;;;;;;;13.71;85.07;99811.19;6195410;28;20050;-73
2023/10/30 06:33:46;;;;;;;2.97;1.40;;;;;;;13.75;84.58;99817.88;6194637;28;20054;-72
2023/10/30 06:36:47;;;;;;;;;;;;;;;13.93;84.46;99825.25;6219946;28;20053;-73
2023/10/30 06:39:48;;;;;;;6.68;1.58;;;;;;;14.00;83.95;99822.03;6219127;28;19928;-73
2023/10/30 06:42:49;;;;;;;5.80;1.58;;;;;;;13.90;84.92;99831.59;6218354;28;20090;-73
2023/10/30 06:45:58;;;;;;;2.40;1.48;;;;;;;14.04;84.53;99828.72;6218132;28;20045;-73
2023/10/30 06:49:02;;;;;;;4.95;1.67;;;;;;;14.17;83.51;99833.00;6219314;28;20049;-73
2023/10/30 06:52:03;;;;;;;2.70;1.20;;;;;;;14.09;83.72;99836.22;6213918;28;20562;-72
2023/10/30 06:55:04;;;;;;;6.35;1.80;;;;;;;14.25;84.01;99838.47;6193462;28;20054;-73
2023/10/30 06:58:06;;;;;;;2.47;1.43;;;;;;;14.42;83.35;99844.97;6194818;28;20179;-75
2023/10/30 07:01:06;;;;;;;3.65;1.50;;;;;;;14.49;82.88;99843.50;6194612;28;20276;-73
2023/10/30 07:04:09;;;;;;;6.45;1.60;;;;;;;14.46;82.57;99835.91;6193666;28;20081;-72
2023/10/30 07:07:10;;;;;;;3.42;1.55;;;;;;;14.42;82.67;99851.06;6194632;28;20395;-73
2023/10/30 07:10:13;;;;;;;4.30;2.00;;;;;;;14.71;81.70;99842.66;6196875;28;20137;-73
2023/10/30 07:13:14;;;;;;;4.90;1.65;;;;;;;14.78;81.55;99845.59;6193452;28;20099;-73
2023/10/30 07:16:17;;;;;;;9.57;2.05;;;;;;;14.89;80.39;99845.56;6193419;28;20391;-76
2023/10/30 07:19:22;;;;;;;3.85;1.42;;;;;;;15.10;79.95;99850.84;6196043;28;20057;-76
2023/10/30 07:22:22;;;;;;;3.50;1.35;;;;;;;15.11;80.31;99848.09;6194719;28;20057;-76
2023/10/30 07:25:23;;;;;;;4.35;1.55;;;;;;;15.11;80.46;99847.22;6193687;28;20055;-76
2023/10/30 07:28:24;;;;;;;4.70;1.27;;;;;;;15.39;79.24;99851.00;6193165;28;20054;-73
2023/10/30 07:31:25;;;;;;;6.40;1.67;;;;;;;15.46;78.45;99840.81;6193061;28;20050;-74
2023/10/30 07:34:26;;;;;;;3.80;1.50;;;;;;;15.49;78.12;99840.56;6210547;28;20054;-76
2023/10/30 07:37:27;;;;;;;4.30;1.33;;;;;;;15.59;78.16;99845.88;6218079;28;20133;-76
2023/10/30 07:40:27;;;;;;;2.85;1.55;;;;;;;15.73;77.56;99845.56;6216176;28;20095;-75
2023/10/30 07:43:31;;;;;;;4.72;1.35;;;;;;;15.75;77.07;99845.41;6217014;28;20154;-76
2023/10/30 07:46:32;;;;;;;6.47;1.70;;;;;;;15.82;76.64;99847.38;6216488;28;20050;-76
2023/10/30 07:49:32;;;;;;;5.00;1.50;;;;;;;16.10;76.03;99853.72;6216858;28;20054;-76
2023/10/30 07:52:35;;;;;;;3.47;1.38;;;;;;;16.17;75.04;99848.75;6218262;28;20078;-72
2023/10/30 07:55:39;;;;;;;4.72;1.55;;;;;;;16.48;74.90;99852.13;6215513;28;20046;-74
2023/10/30 07:58:39;;;;;;;6.10;1.23;;;;;;;16.54;74.97;99860.47;6217569;28;20053;-73
2023/10/30 08:01:40;;;;;;;3.50;1.40;;;;;;;16.45;74.63;99868.22;6212160;28;20042;-73
2023/10/30 08:04:41;;;;;;;3.53;1.67;;;;;;;16.85;73.67;99869.13;6227486;28;20098;-74
2023/10/30 08:07:45;;;;;;;2.92;1.45;;;;;;;16.89;73.93;99865.25;6208360;28;20461;-73
2023/10/30 08:10:47;;;;;;;9.52;2.20;;;;;;;17.10;73.76;99871.19;6206772;28;20585;-74
2023/10/30 08:13:50;;;;;;;7.35;1.85;;;;;;;17.31;72.94;99867.56;6195959;28;20054;-74
2023/10/30 08:16:51;;;;;;;4.80;1.90;;;;;;;17.56;73.88;99867.91;6198204;28;20054;-73
2023/10/30 08:19:52;;;;;;;2.13;1.20;;;;;;;17.32;72.44;99870.06;6215815;28;20077;-73
2023/10/30 08:22:53;;;;;;;9.55;2.00;;;;;;;17.13;72.94;99867.44;6209506;28;20441;-75
2023/10/30 08:25:56;;;;;;;1.90;1.40;;;;;;;17.22;73.73;99874.50;6216159;28;20491;-76
2023/10/30 08:28:57;;;;;;;3.75;1.58;;;;;;;17.48;72.56;99863.34;6208623;28;20562;-76
2023/10/30 08:31:58;;;;;;;9.40;1.95;;;;;;;17.52;72.42;99868.22;6216960;28;20046;-73
2023/10/30 08:35:02;;;;;;;3.78;1.63;;;;;;;17.94;70.82;99871.44;6215007;28;20050;-76
2023/10/30 08:38:03;;;;;;;6.40;1.83;;;;;;;17.96;70.42;99858.94;6213994;28;20061;-76
2023/10/30 08:41:04;;;;;;;4.53;1.42;;;;;;;18.45;71.16;99870.03;6195777;28;20052;-76
2023/10/30 08:44:05;;;;;;;4.85;1.52;;;;;;;18.80;69.73;99853.44;6196426;28;20050;-74
2023/10/30 08:47:06;;;;;;;3.28;1.30;;;;;;;18.67;67.98;99863.50;6196876;28;20076;-74
2023/10/30 08:50:08;;;;;;;6.50;1.90;;;;;;;18.80;67.72;99869.28;6197080;28;20054;-73
2023/10/30 08:53:09;;;;;;;3.00;1.63;;;;;;;18.67;68.08;99861.69;6214459;28;20565;-76
2023/10/30 08:56:10;;;;;;;3.65;1.60;;;;;;;18.53;68.02;99864.84;6217201;28;20054;-76
2023/10/30 08:59:12;;;;;;;1.77;1.23;;;;;;;18.76;68.77;99845.91;6203585;28;20046;-73
2023/10/30 09:02:13;;;;;;;;;;;;;;;18.67;68.55;99860.84;6214354;28;20573;-73
2023/10/30 09:05:13;;;;;;;3.97;1.60;;;;;;;18.99;67.80;99852.44;6216551;28;19921;-73
2023/10/30 09:08:14;;;;;;;4.30;1.65;;;;;;;18.96;67.56;99855.34;6217286;28;20054;-76
2023/10/30 09:11:16;;;;;;;5.53;1.70;;;;;;;19.08;66.50;99864.72;6219535;28;20046;-76
2023/10/30 09:14:17;;;;;;;8.65;1.80;;;;;;;19.41;65.99;99864.13;6217512;28;20422;-76
2023/10/30 09:17:20;;;;;;;2.17;1.10;;;;;;;19.40;65.01;99867.78;6217191;28;20075;-76
2023/10/30 09:20:21;;;;;;;5.57;1.73;;;;;;;19.45;64.65;99868.13;6194944;28;20515;-73
2023/10/30 09:23:26;;;;;;;3.03;1.38;;;;;;;19.65;64.83;99860.81;6197382;28;20047;-73
2023/10/30 09:26:27;;;;;;;3.92;1.40;;;;;;;19.92;65.53;99849.22;6205383;28;20061;-73
2023/10/30 09:29:28;;;;;;;7.97;1.63;;;;;;;20.01;63.80;99853.56;6220569;28;20070;-76
2023/10/30 09:32:29;;;;;;;4.88;1.25;;;;;;;20.01;62.48;99850.09;6218685;28;20079;-76
2023/10/30 09:35:32;;;;;;;5.05;1.15;;;;;;;20.10;63.34;99847.31;6218266;28;20056;-76
2023/10/30 09:38:32;;;;;;;4.97;1.73;;;;;;;20.26;63.28;99846.53;6203972;28;20054;-76
2023/10/30 09:41:41;;;;;;;4.22;1.55;;;;;;;20.26;62.63;99846.53;6199932;28;20103;-76
2023/10/30 09:44:42;;;;;;;5.40;1.20;;;;;;;20.66;62.07;99849.47;6203305;28;20054;-76
2023/10/30 09:47:43;;;;;;;3.33;1.10;;;;;;;20.68;62.01;99839.53;6195508;28;20062;-74
2023/10/30 09:50:45;;;;;;;7.67;1.33;;;;;;;20.60;59.93;99842.16;6199633;28;20214;-73
2023/10/30 09:53:46;;;;;;;;;;;;;;;20.63;59.88;99836.53;6214205;28;20061;-73
2023/10/30 09:56:49;;;;;;;6.78;1.60;;;;;;;20.45;60.37;99834.81;6207883;28;20192;-74
2023/10/30 09:59:53;;;;;;;3.38;1.50;;;;;;;20.66;59.27;99828.25;6203828;28;20180;-74
2023/10/30 10:02:55;;;;;;;4.20;1.38;;;;;;;20.75;58.89;99824.59;6204255;28;20078;-76
2023/10/30 10:05:56;;;;;;;3.20;1.20;;;;;;;20.77;59.26;99835.88;6193866;28;20060;-77
2023/10/30 10:09:04;;;;;;;7.57;1.25;;;;;;;20.85;59.74;99816.50;6202818;28;20061;-76
2023/10/30 10:12:20;;;;;;;5.15;1.20;;;;;;;20.88;59.43;99810.88;6207337;28;20099;-76
2023/10/30 10:15:23;;;;;;;2.60;1.17;;;;;;;21.10;59.21;99818.13;6194357;28;20096;-76
2023/10/30 10:18:28;;;;;;;6.93;1.45;;;;;;;21.23;58.91;99815.00;6195018;28;20107;-74
2023/10/30 10:21:49;;;;;;;4.60;1.38;;;;;;;21.16;58.61;99808.69;6193719;28;20501;-73
2023/10/30 10:24:52;;;;;;;3.13;1.10;;;;;;;21.26;57.23;99811.16;6194135;28;20141;-73
2023/10/30 10:27:54;;;;;;;2.50;1.00;;;;;;;21.03;58.02;99803.91;6213100;28;20053;-74
2023/10/30 10:30:55;;;;;;;6.63;1.38;;;;;;;21.18;58.50;99801.38;6207478;28;20047;-74
2023/10/30 10:33:56;;;;;;;2.00;1.00;;;;;;;20.76;58.74;99818.31;6311400;27;20108;-76
2023/10/30 10:36:59;;;;;;;1.50;1.00;;;;;;;20.61;60.62;99804.91;6293089;28;20479;-76
2023/10/30 10:40:02;;;;;;;3.35;1.02;;;;;;;20.64;60.17;99804.56;6283817;28;20045;-74
2023/10/30 10:43:05;;;;;;;6.72;1.17;;;;;;;20.35;61.03;99804.19;6217968;28;20046;-74
2023/10/30 10:46:06;;;;;;;4.53;1.23;;;;;;;20.64;61.58;99811.69;6217778;28;20174;-74
2023/10/30 10:49:07;;;;;;;2.97;1.30;;;;;;;20.60;61.80;99797.94;6216599;28;20055;-74
2023/10/30 10:52:09;;;;;;;6.90;1.65;;;;;;;20.67;62.09;99803.41;6227537;28;20053;-74
2023/10/30 10:55:10;;;;;;;;;;;;;;;20.72;62.85;99807.22;6216608;28;20079;-75
2023/10/30 10:58:16;;;;;;;5.38;1.55;;;;;;;20.54;62.42;99803.84;6216716;28;19921;-73
2023/10/30 11:01:20;;;;;;;2.30;1.10;;;;;;;20.60;62.08;99791.81;6218107;28;20428;-74
2023/10/30 11:04:22;;;;;;;4.18;1.50;;;;;;;20.68;60.89;99792.63;6193253;28;20137;-74
2023/10/30 11:07:26;;;;;;;;;;;;;;;21.14;60.59;99795.56;6194096;28;20057;-73
2023/10/30 11:10:35;;;;;;;3.22;1.20;;;;;;;20.88;61.52;99793.13;6204775;28;20280;-74
2023/10/30 11:13:42;;;;;;;6.07;1.65;;;;;;;21.73;59.17;99794.47;6336947;28;20563;-74
2023/10/30 11:17:03;;;;;;;4.03;1.13;;;;;;;22.08;57.74;99795.78;6272884;28;20542;-75
2023/10/30 11:20:10;;;;;;;3.55;1.50;;;;;;;22.22;58.28;99794.22;6217996;28;20054;-74
2023/10/30 11:23:52;;;;;;;5.13;1.10;;;;;;;22.35;57.46;99785.69;6219544;28;20088;-76
2023/10/30 11:26:56;;;;;;;5.05;1.73;;;;;;;21.18;60.33;99769.53;6258414;28;20431;-76
2023/10/30 11:30:09;;;;;;;3.67;1.23;;;;;;;21.52;60.49;99766.66;6257352;28;20502;-76
2023/10/30 11:33:21;;;;;;;5.80;1.30;;;;;;;21.59;61.49;99768.63;6286790;28;20500;-76
2023/10/30 11:36:23;;;;;;;1.90;1.17;;;;;;;21.65;61.47;99757.34;6290433;28;20100;-76
2023/10/30 11:39:24;;;;;;;5.75;1.15;;;;;;;21.41;61.06;99760.88;6207047;28;20085;-76
2023/10/30 11:42:25;;;;;;;3.25;1.30;;;;;;;21.46;61.13;99758.56;6215251;28;20099;-76
2023/10/30 11:45:30;;;;;;;3.47;1.30;;;;;;;21.26;60.02;99755.44;6214814;28;20050;-73
2023/10/30 11:48:31;;;;;;;1.92;1.23;;;;;;;21.69;59.69;99748.84;6217407;28;20145;-74
2023/10/30 11:51:35;;;;;;;3.03;1.43;;;;;;;22.00;57.96;99752.50;6217557;28;20046;-74
2023/10/30 11:54:39;;;;;;;3.50;1.15;;;;;;;21.78;57.58;99744.31;6216646;28;20839;-74
2023/10/30 11:57:40;;;;;;;5.63;1.30;;;;;;;21.84;58.25;99735.66;6217768;28;20049;-76
2023/10/30 12:00:46;;;;;;;3.58;1.30;;;;;;;21.46;58.58;99747.94;6217475;28;20485;-76
2023/10/30 12:03:48;;;;;;;2.50;1.15;;;;;;;21.70;58.85;99741.69;6212182;28;20451;-76
2023/10/30 12:06:48;;;;;;;4.32;1.80;;;;;;;21.44;59.40;99724.22;6216282;28;20050;-74
2023/10/30 12:09:50;;;;;;;2.23;1.33;;;;;;;21.72;60.04;99745.84;6217320;28;20408;-74
2023/10/30 12:12:52;;;;;;;3.90;1.30;;;;;;;21.36;59.59;99732.19;6215545;28;20129;-76
2023/10/30 12:15:53;;;;;;;3.15;1.48;;;;;;;21.27;60.67;99731.41;6218915;28;20050;-76
2023/10/30 12:18:56;;;;;;;2.30;1.30;;;;;;;21.15;61.12;99716.84;6220123;28;20457;-76
2023/10/30 12:21:57;;;;;;;4.13;1.45;;;;;;;21.06;60.75;99712.53;6220334;28;20057;-73
2023/10/30 12:24:58;;;;;;;2.23;1.27;;;;;;;21.05;61.27;99722.34;6215459;28;20058;-74
2023/10/30 12:28:01;;;;;;;1.48;1.00;;;;;;;21.34;61.38;99716.44;6219197;28;20092;-74
2023/10/30 12:31:17;;;;;;;2.90;1.30;;;;;;;21.49;61.42;99726.38;6220004;28;20482;-76
2023/10/30 12:34:23;;;;;;;3.30;1.45;;;;;;;21.35;61.09;99725.22;6218421;28;20089;-76
2023/10/30 12:37:24;;;;;;;4.53;1.45;;;;;;;21.34;60.82;99724.41;6221435;28;20129;-76
2023/10/30 12:40:27;;;;;;;2.17;1.00;;;;;;;21.65;60.54;99702.41;6219876;28;20049;-74
2023/10/30 12:43:31;;;;;;;3.03;1.13;;;;;;;21.81;59.82;99698.84;6219475;28;20050;-76
2023/10/30 12:46:31;;;;;;;2.10;0.95;;;;;;;21.81;59.60;99692.72;6221106;28;20060;-74
2023/10/30 12:49:32;;;;;;;3.40;1.00;;;;;;;21.63;58.80;99691.13;6219956;28;20128;-76
2023/10/30 12:52:33;;;;;;;2.77;1.10;;;;;;;21.21;58.28;99684.31;6221071;28;20042;-76
2023/10/30 12:55:34;;;;;;;10.87;1.10;;;;;;;21.33;58.74;99688.25;6196617;28;20050;-74
2023/10/30 12:58:34;;;;;;;5.07;1.00;;;;;;;21.39;58.36;99689.38;6197640;28;20069;-76
2023/10/30 13:01:35;;;;;;;4.53;1.40;;;;;;;21.42;58.75;99680.25;6196450;28;20504;-74
2023/10/30 13:04:36;;;;;;;4.43;1.13;;;;;;;21.41;59.25;99682.06;6205375;28;20132;-75
2023/10/30 13:07:39;;;;;;;3.13;1.30;;;;;;;21.27;58.94;99688.09;6209740;28;20418;-74
2023/10/30 13:10:40;;;;;;;3.55;1.23;;;;;;;21.14;59.02;99686.00;6221120;28;20061;-74
2023/10/30 13:13:41;;;;;;;7.17;1.30;;;;;;;21.28;59.60;99684.47;6218485;28;20042;-76
2023/10/30 13:16:42;;;;;;;10.50;5.37;;;;;;;21.44;60.15;99675.66;6220547;28;20409;-74
2023/10/30 13:19:45;;;;;;;6.83;2.37;;;;;;;21.31;60.75;99676.13;6220708;28;20053;-74
2023/10/30 13:22:46;;;;;;;6.32;2.00;;;;;;;21.23;60.38;99679.69;6219028;28;20054;-76
2023/10/30 13:25:50;;;;;;;3.33;1.67;;;;;;;21.10;60.57;99676.72;6216303;28;20054;-75
2023/10/30 13:28:51;;;;;;;5.30;1.83;;;;;;;21.41;59.23;99678.59;6194593;28;20051;-74
2023/10/30 13:31:52;;;;;;;16.60;5.33;;;;;;;21.07;60.05;99685.84;6195686;28;20122;-74
2023/10/30 13:34:53;;;;;;;7.23;1.63;;;;;;;20.80;60.53;99687.09;6203638;28;20542;-74
2023/10/30 13:37:54;;;;;;;4.87;1.70;;;;;;;20.89;60.59;99674.63;6215778;28;20050;-74
2023/10/30 13:40:55;;;;;;;4.00;1.23;;;;;;;20.88;60.86;99684.41;6218841;28;20054;-74
2023/10/30 13:43:56;;;;;;;3.33;1.27;;;;;;;20.99;61.90;99677.09;6208941;28;20050;-74
2023/10/30 13:46:57;;;;;;;9.82;1.17;;;;;;;21.00;61.99;99671.63;6195662;28;20498;-74
2023/10/30 13:49:58;;;;;;;2.70;1.60;;;;;;;20.83;62.51;99670.81;6199464;28;20394;-73
2023/10/30 13:52:59;;;;;;;6.05;1.40;;;;;;;20.82;62.91;99674.50;6203293;28;20087;-73
2023/10/30 13:56:00;;;;;;;2.90;1.30;;;;;;;20.62;63.12;99671.38;6204761;28;20136;-74
2023/10/30 13:59:01;;;;;;;3.15;1.15;;;;;;;20.67;62.88;99666.41;6207405;28;20046;-74
2023/10/30 14:02:02;;;;;;;5.20;1.50;;;;;;;20.71;62.60;99664.22;6208605;28;20053;-76
2023/10/30 14:05:05;;;;;;;6.07;1.30;;;;;;;20.62;63.04;99674.03;6213814;28;20398;-75
2023/10/30 14:08:07;;;;;;;3.85;1.70;;;;;;;20.59;63.24;99671.72;6201487;28;20050;-73
2023/10/30 14:11:11;;;;;;;2.50;1.50;;;;;;;20.50;63.69;99664.72;6192990;28;20421;-74
2023/10/30 14:14:12;;;;;;;3.47;1.60;;;;;;;20.48;64.13;99664.06;6192534;28;20518;-73
2023/10/30 14:17:13;;;;;;;8.27;1.93;;;;;;;20.48;64.64;99653.47;6196362;28;20146;-76